Time;durP1;ratioP1;P1;durP2;ratioP2;P2;SDS_P1;SDS_P2;PMS_P1;PMS_P2;Temp;Humidity;BMP_temperature;BMP_pressure;BME280_temperature;BME280_humidity;BME280_pressure;Samples;Min_cycle;Max_cycle;Signal;HPM_P1;HPM_P2
2022/12/31 00:02:22;;;;;;;3.93;3.63;;;8.10;99.90;;;;;;5263901;28;20526;-50
2022/12/31 00:04:53;;;;;;;3.20;2.97;;;8.00;99.90;;;;;;5270301;27;20526;-51
2022/12/31 00:07:24;;;;;;;3.50;3.20;;;8.00;99.90;;;;;;5273280;28;20217;-49
2022/12/31 00:09:55;;;;;;;4.20;3.10;;;8.00;99.90;;;;;;5274113;28;20430;-48
2022/12/31 00:12:25;;;;;;;4.50;3.80;;;8.10;99.90;;;;;;5266669;28;20665;-50
2022/12/31 00:14:56;;;;;;;6.07;4.30;;;8.00;99.90;;;;;;5264457;28;20178;-50
2022/12/31 00:17:27;;;;;;;3.70;3.37;;;8.00;99.90;;;;;;5268125;28;20205;-48
2022/12/31 00:19:58;;;;;;;3.60;3.30;;;8.10;99.90;;;;;;5280575;28;20569;-48
2022/12/31 00:22:29;;;;;;;5.57;3.70;;;8.10;99.90;;;;;;5274161;28;20475;-48
2022/12/31 00:24:59;;;;;;;5.70;3.97;;;8.10;99.90;;;;;;5276964;28;20241;-48
2022/12/31 00:27:31;;;;;;;12.30;6.60;;;8.10;99.90;;;;;;5270508;28;20486;-49
2022/12/31 00:30:02;;;;;;;6.03;4.97;;;8.10;99.90;;;;;;5270170;28;20181;-54
2022/12/31 00:32:33;;;;;;;7.47;5.80;;;8.10;99.90;;;;;;5269853;28;20791;-49
2022/12/31 00:35:04;;;;;;;3.63;3.33;;;8.10;99.90;;;;;;5277764;28;20481;-49
2022/12/31 00:37:35;;;;;;;6.97;5.17;;;8.10;99.90;;;;;;5275311;28;20730;-48
2022/12/31 00:40:06;;;;;;;5.50;4.47;;;8.10;99.90;;;;;;5278781;28;20439;-48
2022/12/31 00:42:37;;;;;;;6.63;4.00;;;8.10;99.90;;;;;;5267531;28;20264;-52
2022/12/31 00:45:08;;;;;;;4.17;3.87;;;8.10;99.90;;;;;;5273244;28;20443;-49
2022/12/31 00:47:39;;;;;;;3.10;2.90;;;8.00;99.90;;;;;;5275706;28;20488;-49
2022/12/31 00:50:09;;;;;;;6.73;4.33;;;7.90;99.90;;;;;;5274626;28;20447;-50
2022/12/31 00:52:40;;;;;;;2.97;2.70;;;8.00;99.90;;;;;;5272452;28;20288;-50
2022/12/31 00:55:11;;;;;;;2.77;2.60;;;7.80;99.90;;;;;;5270364;28;20584;-50
2022/12/31 00:57:42;;;;;;;2.90;2.70;;;7.80;99.90;;;;;;5274362;28;20617;-49
2022/12/31 01:00:13;;;;;;;2.10;2.00;;;7.70;99.90;;;;;;5280581;28;20521;-48
2022/12/31 01:02:44;;;;;;;2.60;2.40;;;7.70;99.90;;;;;;5276794;28;20225;-48
2022/12/31 01:05:15;;;;;;;5.90;2.53;;;7.70;99.90;;;;;;5271895;28;20447;-48
2022/12/31 01:07:46;;;;;;;2.60;2.47;;;7.70;99.90;;;;;;5266150;28;20837;-50
2022/12/31 01:11:17;;;;;;;2.57;2.37;;;7.70;99.90;;;;;;5260476;28;20292;-49
2022/12/31 01:13:07;;;;;;;2.67;2.57;;;7.70;99.90;;;;;;5258909;28;20190;-50
2022/12/31 01:15:38;;;;;;;2.90;2.70;;;7.70;99.90;;;;;;5258980;28;20459;-49
2022/12/31 01:18:10;;;;;;;3.30;3.00;;;7.70;99.90;;;;;;5250551;28;20502;-52
2022/12/31 01:20:42;;;;;;;3.40;3.03;;;7.80;99.90;;;;;;5254054;28;20196;-53
2022/12/31 01:23:13;;;;;;;4.60;3.60;;;7.90;99.90;;;;;;5261346;28;20927;-50
2022/12/31 01:25:43;;;;;;;2.77;2.57;;;7.90;99.90;;;;;;5261290;28;20436;-49
2022/12/31 01:28:14;;;;;;;4.27;3.17;;;8.00;99.90;;;;;;5261288;28;20580;-49
2022/12/31 01:30:45;;;;;;;4.53;3.20;;;8.10;99.90;;;;;;5270727;28;20177;-51
2022/12/31 01:33:16;;;;;;;2.97;2.77;;;8.10;99.90;;;;;;5257834;28;20628;-48
2022/12/31 01:35:46;;;;;;;5.07;3.20;;;8.20;99.90;;;;;;5251904;28;20542;-48
2022/12/31 01:38:17;;;;;;;3.30;2.57;;;8.20;99.90;;;;;;5255012;28;20194;-48
2022/12/31 01:40:48;;;;;;;2.43;2.20;;;8.20;99.90;;;;;;5258998;28;20181;-49
2022/12/31 01:43:20;;;;;;;3.93;2.73;;;8.40;99.90;;;;;;5254364;28;20178;-50
2022/12/31 01:45:53;;;;;;;1.70;1.70;;;8.40;99.90;;;;;;5257560;28;20262;-51
2022/12/31 01:48:25;;;;;;;2.30;2.20;;;8.40;99.90;;;;;;5258232;28;20582;-49
2022/12/31 01:50:56;;;;;;;1.80;1.80;;;8.40;99.90;;;;;;5258211;28;20455;-48
2022/12/31 01:53:27;;;;;;;3.70;3.40;;;8.60;99.90;;;;;;5251152;28;20436;-50
2022/12/31 01:55:59;;;;;;;3.10;2.83;;;8.60;99.90;;;;;;5255789;28;20194;-47
2022/12/31 01:58:38;;;;;;;2.57;2.37;;;8.50;99.90;;;;;;5255835;28;20468;-49
2022/12/31 02:01:13;;;;;;;2.80;2.60;;;8.60;99.90;;;;;;5255825;28;20439;-50
2022/12/31 02:03:44;;;;;;;3.23;1.40;;;8.60;99.90;;;;;;5254903;28;20556;-51
2022/12/31 02:06:24;;;;;;;1.60;1.50;;;8.70;99.90;;;;;;5253547;28;20444;-50
2022/12/31 02:08:56;;;;;;;1.90;1.90;;;8.80;99.90;;;;;;5250609;28;20274;-50
2022/12/31 02:11:31;;;;;;;1.43;1.43;;;8.70;99.90;;;;;;5257536;28;20959;-50
2022/12/31 02:14:16;;;;;;;1.57;1.57;;;8.80;99.90;;;;;;5255881;28;20852;-49
2022/12/31 02:17:31;;;;;;;3.00;1.80;;;8.80;99.90;;;;;;5241779;28;20483;-50
2022/12/31 02:20:33;;;;;;;1.50;1.50;;;8.80;99.90;;;;;;5258891;28;20432;-50
2022/12/31 02:23:25;;;;;;;1.30;1.20;;;8.80;99.90;;;;;;5264914;28;20428;-50
2022/12/31 02:26:10;;;;;;;1.30;1.30;;;8.90;99.90;;;;;;5268650;28;20465;-47
2022/12/31 02:29:04;;;;;;;1.53;1.53;;;8.90;99.90;;;;;;5260606;28;20449;-48
2022/12/31 02:31:52;;;;;;;1.60;1.53;;;9.00;99.90;;;;;;5249930;28;20440;-47
2022/12/31 02:34:35;;;;;;;1.50;1.40;;;9.00;99.90;;;;;;5263988;28;20442;-48
2022/12/31 02:37:10;;;;;;;22.00;8.07;;;9.20;99.90;;;;;;5250379;28;20463;-47
2022/12/31 02:39:43;;;;;;;2.93;2.60;;;9.20;99.90;;;;;;5263426;28;20454;-51
2022/12/31 02:42:14;;;;;;;2.00;1.90;;;9.10;99.90;;;;;;5259967;28;21077;-51
2022/12/31 02:44:45;;;;;;;1.07;1.07;;;9.20;99.90;;;;;;5264414;28;20459;-47
2022/12/31 02:47:38;;;;;;;2.73;1.70;;;9.10;99.90;;;;;;5265646;28;20260;-50
2022/12/31 02:50:40;;;;;;;1.37;1.20;;;9.10;99.90;;;;;;5254493;28;20205;-47
2022/12/31 02:53:43;;;;;;;1.17;1.17;;;9.20;99.90;;;;;;5268003;28;20827;-48
2022/12/31 02:56:45;;;;;;;1.07;1.07;;;9.40;99.90;;;;;;5242536;28;20487;-48
2022/12/31 03:02:21;;;;;;;1.23;1.13;;;9.40;99.90;;;;;;5261604;28;20996;-50
2022/12/31 03:04:55;;;;;;;3.40;1.90;;;9.40;99.90;;;;;;5265083;28;20412;-47
2022/12/31 03:07:28;;;;;;;1.87;1.70;;;9.40;99.90;;;;;;5256805;28;20436;-46
2022/12/31 03:10:00;;;;;;;1.73;1.63;;;9.60;99.90;;;;;;5260668;28;20463;-48
2022/12/31 03:12:48;;;;;;;0.50;0.50;;;9.60;99.90;;;;;;5260662;28;20455;-52
2022/12/31 03:15:28;;;;;;;0.50;0.50;;;9.60;99.90;;;;;;5255622;28;20512;-47
2022/12/31 03:18:11;;;;;;;0.57;0.57;;;9.60;99.90;;;;;;5279439;28;20477;-47
2022/12/31 03:26:40;;;;;;;2.53;1.23;;;9.70;99.90;;;;;;5251732;28;20427;-49
2022/12/31 03:29:10;;;;;;;1.23;1.17;;;9.70;99.90;;;;;;5257602;28;21210;-48
2022/12/31 03:31:41;;;;;;;0.80;0.80;;;9.90;99.90;;;;;;5267151;28;20684;-48
2022/12/31 03:34:14;;;;;;;0.87;0.73;;;9.90;99.90;;;;;;5265253;28;20186;-49
2022/12/31 03:36:45;;;;;;;0.90;0.90;;;9.90;99.90;;;;;;5258520;28;20197;-49
2022/12/31 03:39:15;;;;;;;1.07;0.70;;;9.90;99.90;;;;;;5263709;28;20494;-50
2022/12/31 03:41:46;;;;;;;0.87;0.87;;;9.90;99.90;;;;;;5265112;28;20190;-48
2022/12/31 03:44:16;;;;;;;5.40;0.90;;;9.90;99.90;;;;;;5268709;28;20182;-47
2022/12/31 03:46:47;;;;;;;0.50;0.50;;;10.00;99.90;;;;;;5269355;28;20642;-47
2022/12/31 03:49:18;;;;;;;0.50;0.50;;;10.00;99.90;;;;;;5269865;28;20209;-48
2022/12/31 03:51:48;;;;;;;0.50;0.50;;;10.10;99.90;;;;;;5268294;28;20205;-48
2022/12/31 03:54:19;;;;;;;0.60;0.50;;;10.20;99.90;;;;;;5266116;28;20189;-49
2022/12/31 03:56:50;;;;;;;0.57;0.50;;;10.10;99.90;;;;;;5264308;28;20210;-49
2022/12/31 03:59:20;;;;;;;1.30;0.40;;;10.00;99.90;;;;;;5258076;28;20678;-48
2022/12/31 04:01:51;;;;;;;0.70;0.70;;;10.10;99.90;;;;;;5270524;28;20711;-46
2022/12/31 04:04:22;;;;;;;0.50;0.50;;;10.10;99.90;;;;;;5267272;28;20186;-49
2022/12/31 04:06:52;;;;;;;0.50;0.50;;;10.10;99.90;;;;;;5261506;28;20261;-48
2022/12/31 04:09:23;;;;;;;0.50;0.50;;;10.10;99.90;;;;;;5266204;28;20209;-48
2022/12/31 04:11:54;;;;;;;0.80;0.80;;;10.10;99.90;;;;;;5258363;28;20190;-49
2022/12/31 04:14:24;;;;;;;0.50;0.50;;;10.10;99.90;;;;;;5263912;28;20179;-47
2022/12/31 04:16:55;;;;;;;0.60;0.60;;;10.20;99.90;;;;;;5260444;28;20290;-48
2022/12/31 04:19:25;;;;;;;0.53;0.53;;;10.20;99.90;;;;;;5264665;28;20706;-49
2022/12/31 04:21:56;;;;;;;0.80;0.80;;;10.30;99.90;;;;;;5255522;28;20182;-48
2022/12/31 04:24:27;;;;;;;0.77;0.77;;;10.30;99.90;;;;;;5263067;28;20209;-47
2022/12/31 04:26:57;;;;;;;0.83;0.70;;;10.30;99.90;;;;;;5270450;28;20203;-48
2022/12/31 04:29:28;;;;;;;1.90;0.50;;;10.30;99.90;;;;;;5268518;28;20942;-47
2022/12/31 04:31:59;;;;;;;1.57;0.87;;;10.50;99.90;;;;;;5260761;28;20171;-52
2022/12/31 04:34:30;;;;;;;1.50;0.60;;;10.40;99.90;;;;;;5270494;28;20196;-47
2022/12/31 04:37:01;;;;;;;0.70;0.70;;;10.40;99.90;;;;;;5266351;28;20200;-47
2022/12/31 04:39:32;;;;;;;0.47;0.47;;;10.40;99.90;;;;;;5271145;28;20428;-49
2022/12/31 04:42:03;;;;;;;0.37;0.37;;;10.40;99.90;;;;;;5267100;28;20438;-51
2022/12/31 04:44:34;;;;;;;0.90;0.90;;;10.40;99.90;;;;;;5267529;28;20209;-49
2022/12/31 04:47:04;;;;;;;0.40;0.40;;;10.40;99.90;;;;;;5273392;28;20196;-53
2022/12/31 04:49:35;;;;;;;0.87;0.50;;;10.40;99.90;;;;;;5267321;28;20175;-48
2022/12/31 04:52:05;;;;;;;0.43;0.40;;;10.40;99.90;;;;;;5266987;28;20186;-48
2022/12/31 04:54:36;;;;;;;0.40;0.40;;;10.40;99.90;;;;;;5276453;28;20209;-47
2022/12/31 04:57:07;;;;;;;0.40;0.40;;;10.50;99.90;;;;;;5268478;28;20229;-49
2022/12/31 04:59:37;;;;;;;0.40;0.40;;;10.50;99.90;;;;;;5266729;28;20182;-48
2022/12/31 05:02:08;;;;;;;0.40;0.40;;;10.50;99.90;;;;;;5268391;28;20174;-49
2022/12/31 05:04:39;;;;;;;1.17;0.40;;;10.60;99.90;;;;;;5269383;28;20244;-46
2022/12/31 05:07:09;;;;;;;0.30;0.30;;;10.60;99.90;;;;;;5259015;28;20206;-49
2022/12/31 05:09:40;;;;;;;0.50;0.50;;;10.80;99.90;;;;;;5256532;28;20182;-48
2022/12/31 05:12:10;;;;;;;0.70;0.70;;;10.80;99.90;;;;;;5258525;28;20221;-47
2022/12/31 05:14:41;;;;;;;0.37;0.37;;;10.80;99.90;;;;;;5265511;28;20237;-47
2022/12/31 05:17:12;;;;;;;0.30;0.30;;;10.80;99.90;;;;;;5266891;28;20251;-46
2022/12/31 05:19:42;;;;;;;0.40;0.40;;;10.90;99.90;;;;;;5268799;28;20174;-49
2022/12/31 05:22:28;;;;;;;2.23;0.47;;;10.90;99.90;;;;;;5263125;28;20264;-47
2022/12/31 05:25:00;;;;;;;0.50;0.50;;;10.90;99.90;;;;;;5268581;28;20657;-48
2022/12/31 05:27:30;;;;;;;0.50;0.50;;;10.90;99.90;;;;;;5259728;28;20439;-47
2022/12/31 05:30:01;;;;;;;0.40;0.40;;;10.90;99.90;;;;;;5262405;28;20435;-49
2022/12/31 05:32:32;;;;;;;0.73;0.60;;;10.90;99.90;;;;;;5268210;28;20546;-48
2022/12/31 05:35:03;;;;;;;0.57;0.40;;;10.90;99.90;;;;;;5268132;28;20603;-47
2022/12/31 05:37:34;;;;;;;4.63;0.40;;;10.90;99.90;;;;;;5265623;28;20470;-47
2022/12/31 05:40:06;;;;;;;1.07;0.37;;;10.80;99.90;;;;;;5268074;28;20428;-46
2022/12/31 05:42:37;;;;;;;0.50;0.50;;;10.80;99.90;;;;;;5270044;28;20178;-48
2022/12/31 05:45:08;;;;;;;0.40;0.40;;;10.80;99.90;;;;;;5269220;28;20503;-48
2022/12/31 05:47:39;;;;;;;0.80;0.80;;;10.80;99.90;;;;;;5266435;28;20514;-48
2022/12/31 05:50:14;;;;;;;0.47;0.47;;;10.80;99.90;;;;;;5263600;28;20428;-49
2022/12/31 05:52:45;;;;;;;0.50;0.50;;;10.80;99.90;;;;;;5264184;28;20454;-48
2022/12/31 05:55:15;;;;;;;0.63;0.60;;;10.70;99.90;;;;;;5268977;28;21002;-49
2022/12/31 05:57:46;;;;;;;0.50;0.50;;;10.90;99.90;;;;;;5257880;28;20526;-50
2022/12/31 06:00:17;;;;;;;2.87;0.73;;;10.80;99.90;;;;;;5266999;28;20181;-50
2022/12/31 06:02:48;;;;;;;2.13;1.13;;;11.00;99.90;;;;;;5249546;28;20185;-48
2022/12/31 06:05:18;;;;;;;1.17;1.17;;;11.00;99.90;;;;;;5268032;28;20630;-52
2022/12/31 06:07:49;;;;;;;0.80;0.80;;;11.10;99.90;;;;;;5267705;28;20229;-50
2022/12/31 06:10:19;;;;;;;0.67;0.67;;;11.00;99.90;;;;;;5266809;28;20189;-50
2022/12/31 06:12:50;;;;;;;1.07;0.90;;;11.00;99.90;;;;;;5266690;28;20280;-48
2022/12/31 06:15:21;;;;;;;0.97;0.73;;;11.00;99.90;;;;;;5258070;28;20293;-50
2022/12/31 06:17:52;;;;;;;0.50;0.50;;;11.00;99.90;;;;;;5266270;28;20201;-51
2022/12/31 06:20:22;;;;;;;0.50;0.50;;;11.00;99.90;;;;;;5267142;28;20238;-48
2022/12/31 06:22:53;;;;;;;0.57;0.57;;;11.00;99.90;;;;;;5258173;28;20181;-48
2022/12/31 06:25:23;;;;;;;0.70;0.70;;;11.00;99.90;;;;;;5267064;28;20185;-47
2022/12/31 06:27:54;;;;;;;0.70;0.70;;;10.90;99.90;;;;;;5265081;28;20205;-49
2022/12/31 06:30:25;;;;;;;0.40;0.40;;;11.10;99.90;;;;;;5262893;28;20257;-51
2022/12/31 06:32:55;;;;;;;1.17;0.50;;;11.00;99.90;;;;;;5252400;28;20194;-49
2022/12/31 06:35:26;;;;;;;0.30;0.30;;;11.00;99.90;;;;;;5272215;28;20229;-50
2022/12/31 06:37:57;;;;;;;0.37;0.37;;;11.10;99.90;;;;;;5259242;28;20201;-49
2022/12/31 06:40:27;;;;;;;0.90;0.40;;;11.10;99.90;;;;;;5267611;28;20185;-49
2022/12/31 06:42:58;;;;;;;0.47;0.47;;;11.10;99.90;;;;;;5265427;28;20216;-49
2022/12/31 06:45:29;;;;;;;0.27;0.27;;;11.10;99.90;;;;;;5255885;28;20574;-49
2022/12/31 06:47:59;;;;;;;0.30;0.30;;;11.10;99.90;;;;;;5264274;28;20580;-52
2022/12/31 06:50:30;;;;;;;1.23;0.37;;;11.20;99.90;;;;;;5262716;28;20239;-48
2022/12/31 06:53:01;;;;;;;0.77;0.50;;;11.20;99.90;;;;;;5257823;28;20182;-47
2022/12/31 06:55:32;;;;;;;0.50;0.50;;;11.20;99.90;;;;;;5265719;28;20251;-50
2022/12/31 06:58:03;;;;;;;3.40;0.30;;;11.40;99.90;;;;;;5262436;28;20221;-49
2022/12/31 07:00:34;;;;;;;0.60;0.50;;;11.30;99.90;;;;;;5260345;28;20803;-53
2022/12/31 07:03:26;;;;;;;0.40;0.40;;;11.40;99.90;;;;;;5264352;28;20431;-48
2022/12/31 07:06:15;;;;;;;0.30;0.30;;;11.30;99.90;;;;;;5264838;28;20177;-50
2022/12/31 07:08:49;;;;;;;0.40;0.40;;;11.30;99.90;;;;;;5261004;28;20467;-48
2022/12/31 07:11:22;;;;;;;0.30;0.30;;;11.30;99.90;;;;;;5261956;28;20439;-48
2022/12/31 07:14:10;;;;;;;0.47;0.43;;;11.30;99.90;;;;;;5262336;28;20447;-49
2022/12/31 07:17:18;;;;;;;0.50;0.50;;;11.30;99.90;;;;;;5262135;28;20464;-49
2022/12/31 07:20:11;;;;;;;0.60;0.60;;;11.40;99.90;;;;;;5251392;28;20436;-48
2022/12/31 07:22:42;;;;;;;0.60;0.60;;;11.50;99.90;;;;;;5263770;28;20514;-48
2022/12/31 07:25:15;;;;;;;0.40;0.40;;;11.60;99.90;;;;;;5263743;28;21009;-49
2022/12/31 07:27:57;;;;;;;0.70;0.53;;;11.60;99.90;;;;;;5261446;28;20958;-48
2022/12/31 07:30:45;;;;;;;0.40;0.40;;;11.70;99.90;;;;;;5261311;28;20436;-49
2022/12/31 07:33:40;;;;;;;0.40;0.40;;;11.60;99.90;;;;;;5252547;28;20542;-51
2022/12/31 07:36:50;;;;;;;0.40;0.40;;;11.70;99.90;;;;;;5265279;28;20459;-48
2022/12/31 07:39:38;;;;;;;1.17;0.40;;;11.80;99.90;;;;;;5262989;28;20459;-51
2022/12/31 07:42:19;;;;;;;0.50;0.50;;;11.90;99.90;;;;;;5284764;27;20420;-49
2022/12/31 07:45:06;;;;;;;0.67;0.67;;;11.90;99.90;;;;;;5267115;28;20567;-49
2022/12/31 07:47:38;;;;;;;0.57;0.40;;;12.00;99.90;;;;;;5271093;28;20513;-50
2022/12/31 07:50:17;;;;;;;0.37;0.37;;;12.10;99.90;;;;;;5272354;28;20475;-48
2022/12/31 07:52:48;;;;;;;1.60;0.50;;;12.20;99.90;;;;;;5266023;28;21003;-48
2022/12/31 07:55:19;;;;;;;0.30;0.30;;;12.40;99.90;;;;;;5259091;28;20523;-49
2022/12/31 07:58:07;;;;;;;0.50;0.50;;;12.40;99.90;;;;;;5260343;28;20205;-50
2022/12/31 08:00:39;;;;;;;0.37;0.37;;;12.60;99.90;;;;;;5254453;28;20182;-57
2022/12/31 08:03:12;;;;;;;0.30;0.30;;;12.60;99.90;;;;;;5257027;28;20439;-50
2022/12/31 08:05:52;;;;;;;1.70;0.37;;;12.70;99.90;;;;;;5252684;28;20816;-50
2022/12/31 08:08:25;;;;;;;0.30;0.30;;;12.80;99.90;;;;;;5260421;28;20460;-49
2022/12/31 08:11:25;;;;;;;0.30;0.30;;;12.70;99.90;;;;;;5266236;28;20442;-48
2022/12/31 08:14:01;;;;;;;0.30;0.30;;;12.80;99.90;;;;;;5260965;28;20469;-49
2022/12/31 08:16:31;;;;;;;0.40;0.40;;;12.90;99.90;;;;;;5258945;28;20505;-50
2022/12/31 08:19:03;;;;;;;0.40;0.40;;;12.90;99.90;;;;;;5259806;28;20505;-51
2022/12/31 08:21:57;;;;;;;0.53;0.53;;;13.00;99.90;;;;;;5239767;28;20186;-48
2022/12/31 08:24:39;;;;;;;0.50;0.50;;;13.10;99.90;;;;;;5258420;28;20436;-53
2022/12/31 08:27:47;;;;;;;0.40;0.40;;;13.10;99.90;;;;;;5259569;28;20448;-50
2022/12/31 08:30:28;;;;;;;0.77;0.67;;;13.10;99.90;;;;;;5257181;28;20841;-49
2022/12/31 08:33:12;;;;;;;0.60;0.60;;;13.20;99.90;;;;;;5261631;28;23339;-52
2022/12/31 08:36:17;;;;;;;1.70;1.37;;;13.30;99.90;;;;;;5257039;28;20463;-49
2022/12/31 08:39:02;;;;;;;0.70;0.70;;;13.40;99.90;;;;;;5257742;28;20451;-50
2022/12/31 08:41:45;;;;;;;0.70;0.70;;;13.40;99.90;;;;;;5255180;28;20427;-50
2022/12/31 08:44:43;;;;;;;0.60;0.60;;;13.60;99.90;;;;;;5260978;28;20439;-50
2022/12/31 08:47:14;;;;;;;1.97;1.00;;;13.60;99.90;;;;;;5256001;28;20468;-50
2022/12/31 08:49:45;;;;;;;0.53;0.50;;;13.60;99.90;;;;;;5256372;28;20476;-49
2022/12/31 08:52:22;;;;;;;1.70;0.50;;;13.60;99.90;;;;;;5257202;28;20197;-49
2022/12/31 08:54:53;;;;;;;0.60;0.60;;;13.70;99.90;;;;;;5259350;28;20431;-49
2022/12/31 08:57:43;;;;;;;1.30;1.20;;;13.80;99.90;;;;;;5257818;28;20479;-52
2022/12/31 09:00:17;;;;;;;0.90;0.90;;;13.90;99.90;;;;;;5265887;28;20443;-47
2022/12/31 09:03:17;;;;;;;0.40;0.40;;;14.00;99.90;;;;;;5265085;28;20436;-49
2022/12/31 09:05:56;;;;;;;1.30;1.20;;;14.10;99.90;;;;;;5264480;28;20430;-48
2022/12/31 09:08:39;;;;;;;0.70;0.70;;;14.10;99.90;;;;;;5269030;28;21101;-48
2022/12/31 09:11:32;;;;;;;1.40;0.70;;;14.30;99.90;;;;;;5270699;28;20483;-48
2022/12/31 09:14:31;;;;;;;0.87;0.87;;;14.30;99.90;;;;;;5258432;28;20526;-49
2022/12/31 09:17:22;;;;;;;0.90;0.90;;;14.40;99.90;;;;;;5262514;28;20874;-51
2022/12/31 09:19:53;;;;;;;0.77;0.77;;;14.50;99.90;;;;;;5266330;28;20791;-47
2022/12/31 09:22:24;;;;;;;0.50;0.50;;;14.60;99.90;;;;;;5267675;28;20435;-49
2022/12/31 09:24:55;;;;;;;0.90;0.50;;;14.70;99.90;;;;;;5258704;28;20182;-47
2022/12/31 09:27:45;;;;;;;0.50;0.50;;;14.70;99.90;;;;;;5269603;28;20541;-50
2022/12/31 09:30:17;;;;;;;0.77;0.77;;;14.80;99.90;;;;;;5249673;28;21120;-49
2022/12/31 09:33:07;;;;;;;0.90;0.67;;;15.00;99.90;;;;;;5267466;28;20430;-49
2022/12/31 09:35:53;;;;;;;1.07;0.70;;;15.20;99.90;;;;;;5277308;28;20462;-49
2022/12/31 09:38:53;;;;;;;0.67;0.67;;;15.40;99.90;;;;;;5274860;28;20464;-49
2022/12/31 09:41:47;;;;;;;1.13;0.77;;;15.50;99.90;;;;;;5260294;28;20604;-49
2022/12/31 09:44:53;;;;;;;3.10;0.50;;;15.50;99.90;;;;;;5272164;28;20431;-53
2022/12/31 09:47:42;;;;;;;2.97;0.70;;;15.50;99.90;;;;;;5263778;28;20475;-49
2022/12/31 09:50:42;;;;;;;1.43;1.40;;;15.50;99.90;;;;;;5273140;28;20527;-48
2022/12/31 09:53:15;;;;;;;1.00;1.00;;;15.40;99.90;;;;;;5267248;28;20432;-52
2022/12/31 09:55:55;;;;;;;1.63;1.03;;;15.40;99.90;;;;;;5273721;28;20524;-51
2022/12/31 09:58:45;;;;;;;1.03;1.03;;;15.30;99.90;;;;;;5269398;28;20477;-50
2022/12/31 10:01:43;;;;;;;0.90;0.90;;;15.30;99.90;;;;;;5260616;28;21354;-51
2022/12/31 10:04:23;;;;;;;1.03;0.53;;;15.40;99.90;;;;;;5266253;28;20479;-47
2022/12/31 10:07:13;;;;;;;0.70;0.70;;;15.40;99.90;;;;;;5276033;28;20444;-49
2022/12/31 10:09:51;;;;;;;0.67;0.60;;;15.40;99.90;;;;;;5267253;28;20459;-51
2022/12/31 10:12:45;;;;;;;0.80;0.80;;;15.50;99.90;;;;;;5249478;28;21025;-57
2022/12/31 10:16:01;;;;;;;7.20;0.67;;;15.50;99.90;;;;;;5251483;28;20444;-51
2022/12/31 10:19:00;;;;;;;1.00;0.90;;;15.50;99.90;;;;;;5264031;28;20459;-52
2022/12/31 10:22:09;;;;;;;1.83;0.90;;;15.40;99.90;;;;;;5272063;28;20476;-50
2022/12/31 10:25:04;;;;;;;0.70;0.70;;;15.40;99.90;;;;;;5269492;28;20427;-48
2022/12/31 10:28:03;;;;;;;1.17;1.10;;;15.50;99.90;;;;;;5278218;28;20983;-49
2022/12/31 10:30:39;;;;;;;1.70;0.80;;;15.50;99.90;;;;;;5271373;28;20434;-49
2022/12/31 10:33:34;;;;;;;1.20;1.17;;;15.50;99.90;;;;;;5260151;28;20434;-47
2022/12/31 10:36:44;;;;;;;0.87;0.73;;;15.50;99.90;;;;;;5276640;28;20498;-49
2022/12/31 10:39:33;;;;;;;0.50;0.50;;;15.50;99.90;;;;;;5277583;28;20440;-50
2022/12/31 10:42:17;;;;;;;2.10;0.60;;;15.50;99.90;;;;;;5265355;28;20430;-48
2022/12/31 10:45:13;;;;;;;0.80;0.80;;;15.50;99.90;;;;;;5266154;28;20427;-50
2022/12/31 10:48:02;;;;;;;0.80;0.70;;;15.50;99.90;;;;;;5277914;28;20443;-50
2022/12/31 10:50:42;;;;;;;0.80;0.80;;;15.50;99.90;;;;;;5269501;28;20427;-49
2022/12/31 10:53:31;;;;;;;0.70;0.70;;;15.50;99.90;;;;;;5274271;28;20480;-53
2022/12/31 10:56:30;;;;;;;1.33;0.73;;;15.50;99.90;;;;;;5272903;28;20952;-49
2022/12/31 10:59:28;;;;;;;3.90;0.90;;;15.60;99.90;;;;;;5216510;28;1594726;-49
2022/12/31 11:02:21;;;;;;;1.27;1.17;;;15.40;99.90;;;;;;5261646;28;20474;-50
2022/12/31 11:05:19;;;;;;;3.77;1.00;;;15.40;99.90;;;;;;5269908;28;20450;-53
2022/12/31 11:08:34;;;;;;;0.87;0.67;;;15.30;99.90;;;;;;5266181;28;20508;-52
2022/12/31 11:11:20;;;;;;;0.70;0.70;;;15.20;99.90;;;;;;5239074;28;20918;-51
2022/12/31 11:14:06;;;;;;;0.63;0.63;;;15.20;99.90;;;;;;5276741;28;20431;-48
2022/12/31 11:17:00;;;;;;;4.23;1.40;;;15.20;99.90;;;;;;5262031;28;20467;-53
2022/12/31 11:19:54;;;;;;;1.60;0.80;;;15.20;99.90;;;;;;5269745;28;20451;-50
2022/12/31 11:22:46;;;;;;;1.33;1.30;;;15.30;99.90;;;;;;5263989;28;20432;-50
2022/12/31 11:25:29;;;;;;;2.20;2.10;;;15.20;99.90;;;;;;5260601;28;20475;-55
2022/12/31 11:28:10;;;;;;;2.53;2.33;;;15.10;99.90;;;;;;5267485;28;20531;-53
2022/12/31 11:30:46;;;;;;;1.40;1.40;;;15.10;99.90;;;;;;5269194;28;20986;-50
2022/12/31 11:33:35;;;;;;;2.23;1.57;;;15.20;99.90;;;;;;5274115;28;20431;-53
2022/12/31 11:36:34;;;;;;;0.67;0.67;;;15.20;99.90;;;;;;5277219;28;20842;-50
2022/12/31 11:39:23;;;;;;;0.70;0.70;;;15.20;99.90;;;;;;5267801;28;20462;-54
2022/12/31 11:42:18;;;;;;;0.97;0.97;;;15.20;99.90;;;;;;5277664;28;20999;-52
2022/12/31 11:44:58;;;;;;;1.00;1.00;;;15.20;99.90;;;;;;5271682;28;20423;-50
2022/12/31 11:47:51;;;;;;;2.10;2.00;;;15.30;99.90;;;;;;5268737;28;20482;-50
2022/12/31 11:50:36;;;;;;;4.10;1.97;;;15.40;99.90;;;;;;5269071;28;20534;-51
2022/12/31 11:53:24;;;;;;;2.73;2.23;;;15.40;99.90;;;;;;5284383;27;20542;-49
2022/12/31 11:56:11;;;;;;;4.97;4.00;;;15.50;99.90;;;;;;5280503;28;20446;-50
2022/12/31 11:58:49;;;;;;;2.37;2.23;;;15.70;99.90;;;;;;5273920;28;20496;-50
2022/12/31 12:01:35;;;;;;;1.40;1.40;;;15.70;99.90;;;;;;5268597;28;20497;-51
2022/12/31 12:04:09;;;;;;;1.33;1.23;;;15.80;99.90;;;;;;5270961;28;20436;-51
2022/12/31 12:06:41;;;;;;;1.43;1.43;;;15.90;99.90;;;;;;5301881;27;20427;-55
2022/12/31 12:09:29;;;;;;;1.90;1.80;;;15.90;99.90;;;;;;5270678;28;20754;-50
2022/12/31 12:12:04;;;;;;;1.93;1.90;;;16.00;99.90;;;;;;5271660;28;20576;-48
2022/12/31 12:14:40;;;;;;;1.27;1.27;;;16.00;99.90;;;;;;5268659;28;20525;-50
2022/12/31 12:17:22;;;;;;;3.37;1.10;;;16.10;99.90;;;;;;5261563;28;20535;-49
2022/12/31 12:19:55;;;;;;;0.90;0.90;;;16.20;99.90;;;;;;5265025;28;20804;-49
2022/12/31 12:22:28;;;;;;;1.10;1.10;;;16.30;99.90;;;;;;5267937;28;20431;-51
2022/12/31 12:25:14;;;;;;;6.87;4.37;;;16.50;99.90;;;;;;5283182;27;20427;-51
2022/12/31 12:27:46;;;;;;;92.47;46.57;;;16.50;99.90;;;;;;5264984;28;20455;-51
2022/12/31 12:30:26;;;;;;;7.10;3.97;;;16.60;99.90;;;;;;5261547;28;20433;-54
2022/12/31 12:33:03;;;;;;;6.13;3.80;;;16.70;99.90;;;;;;5271028;28;20432;-51
2022/12/31 12:35:34;;;;;;;71.90;35.47;;;16.70;99.90;;;;;;5269452;28;20542;-55
2022/12/31 12:38:11;;;;;;;8.37;3.77;;;16.70;99.90;;;;;;5281993;27;20478;-50
2022/12/31 12:40:58;;;;;;;3.07;1.33;;;16.70;99.90;;;;;;5265443;28;20887;-50
2022/12/31 12:43:32;;;;;;;1.10;1.10;;;16.60;99.90;;;;;;5276204;28;20440;-51
2022/12/31 12:46:24;;;;;;;0.77;0.77;;;16.70;99.90;;;;;;5267663;28;20757;-49
2022/12/31 12:48:56;;;;;;;1.30;1.30;;;16.70;99.90;;;;;;5278147;28;20460;-51
2022/12/31 12:51:42;;;;;;;1.00;1.00;;;16.70;99.90;;;;;;5261719;28;20477;-54
2022/12/31 12:54:41;;;;;;;2.97;1.20;;;16.60;99.90;;;;;;5267719;28;20447;-48
2022/12/31 12:57:37;;;;;;;2.00;1.00;;;16.70;99.90;;;;;;5243292;28;20544;-48
2022/12/31 13:00:10;;;;;;;1.47;1.40;;;16.70;99.90;;;;;;5263232;28;20543;-50
2022/12/31 13:02:56;;;;;;;1.70;1.60;;;16.70;99.90;;;;;;5279931;27;20835;-54
2022/12/31 13:05:44;;;;;;;1.27;1.27;;;16.70;99.90;;;;;;5267612;28;20443;-50
2022/12/31 13:08:24;;;;;;;1.40;1.30;;;16.70;99.90;;;;;;5269171;28;20539;-49
2022/12/31 13:11:00;;;;;;;2.73;1.60;;;16.80;99.90;;;;;;5273819;28;20928;-49
2022/12/31 13:13:34;;;;;;;2.60;1.67;;;16.80;99.90;;;;;;5267889;28;20807;-49
2022/12/31 13:16:13;;;;;;;4.33;1.60;;;16.80;99.90;;;;;;5262575;28;20480;-48
2022/12/31 13:19:12;;;;;;;2.10;1.43;;;16.80;99.90;;;;;;5263941;28;20971;-50
2022/12/31 13:22:01;;;;;;;1.20;1.20;;;16.90;99.90;;;;;;5272180;28;20447;-50
2022/12/31 13:24:38;;;;;;;2.47;1.00;;;16.80;99.90;;;;;;5267963;28;20439;-50
2022/12/31 13:27:34;;;;;;;1.00;1.00;;;16.90;99.90;;;;;;5261994;28;20443;-50
2022/12/31 13:30:29;;;;;;;1.63;1.53;;;16.80;99.90;;;;;;5266849;28;21040;-49
2022/12/31 13:33:13;;;;;;;1.53;1.43;;;16.70;99.90;;;;;;5256763;28;20439;-49
2022/12/31 13:35:48;;;;;;;1.53;1.23;;;16.70;99.90;;;;;;5270292;28;20457;-50
2022/12/31 13:38:30;;;;;;;4.43;1.20;;;16.70;99.90;;;;;;5264379;28;20466;-50
2022/12/31 13:41:07;;;;;;;3.87;1.10;;;16.60;99.90;;;;;;5272330;28;20463;-50
2022/12/31 13:44:05;;;;;;;0.90;0.90;;;16.70;99.90;;;;;;5266553;28;20654;-51
2022/12/31 13:46:52;;;;;;;1.90;1.60;;;16.70;99.90;;;;;;5259862;28;20867;-49
2022/12/31 13:49:35;;;;;;;1.37;1.13;;;16.70;99.90;;;;;;5251585;28;20593;-50
2022/12/31 13:52:15;;;;;;;1.90;1.10;;;16.80;99.90;;;;;;5267972;28;20443;-48
2022/12/31 13:55:10;;;;;;;1.53;1.40;;;16.70;99.90;;;;;;5274515;28;20430;-52
2022/12/31 13:57:52;;;;;;;1.20;1.20;;;16.70;99.90;;;;;;5270463;28;20477;-51
2022/12/31 14:00:46;;;;;;;1.67;1.00;;;16.70;99.90;;;;;;5263378;28;21015;-49
2022/12/31 14:03:19;;;;;;;2.97;0.80;;;16.80;99.90;;;;;;5276496;28;20583;-56